Main page
METAR-TAF:

METAR-TAF

Airports :

Pamplona Airport

Pamplona, Spain

latitude: 42-46N, longitude: 001-38W, elevation: 459 m

Current weather observation

The report was made 41 minutes ago, at 05:00 UTC
Wind 2 kt from the West
Temperature 14°C
Humidity 77%
Pressure 1020 hPa
Visibility 10 km or more
no clouds below 1500 m and no cumulonimbus

METAR: LEPP 240500Z 27002KT CAVOK 14/10 Q1020

Time: 07:41 (05:41 UTC)

Forecast

The report was made 3 hours and 41 minutes ago, at 02:00 UTC
Forecast valid from 24 at 03 UTC to 25 at 03 UTC
Wind 3 kt from variable directions
Visibility 10 km or more
no clouds below 1500 m and no cumulonimbus
Temporary
from 24 at 10 UTC to 24 at 13 UTC
Wind 10 kt from the South
Becoming
from 24 at 18 UTC to 24 at 20 UTC
Wind 10 kt from the Northwest
Becoming
from 25 at 00 UTC to 25 at 02 UTC
Wind 3 kt from variable directions

TAF: LEPP 240200Z 2403/2503 VRB03KT CAVOK TX35/2416Z TN17/2406Z TEMPO 2410/2413 18010KT BECMG 2418/2420 31010KT BECMG 2500/2502 VRB03KT

Weather observations and forecasts of more than 4000 airports (METAR and TAF reports).

The available stations are represented by yellow and red dots on the map.

Hover mouse over dot to see the name of the station.

Then click to see weather observations and forecasts.

To change the map : click on the green buttons with a black cross to zoom in, on the green button with a dash to zoom out, or on the green arrows for adjacent maps.


METAR-TAF: